sensor_id;sensor_type;location;lat;lon;timestamp;P1;durP1;ratioP1;P2;durP2;ratioP2
3733;SDS011;1882;52.256;8.874;2023-07-31T00:00:06;6.60;;;5.10;;
3733;SDS011;1882;52.256;8.874;2023-07-31T00:02:36;6.43;;;5.00;;
3733;SDS011;1882;52.256;8.874;2023-07-31T00:05:02;6.17;;;4.37;;
3733;SDS011;1882;52.256;8.874;2023-07-31T00:07:29;8.27;;;4.97;;
3733;SDS011;1882;52.256;8.874;2023-07-31T00:09:56;9.50;;;4.47;;
3733;SDS011;1882;52.256;8.874;2023-07-31T00:12:23;6.03;;;4.73;;
3733;SDS011;1882;52.256;8.874;2023-07-31T00:14:49;6.00;;;4.27;;
3733;SDS011;1882;52.256;8.874;2023-07-31T00:17:17;8.17;;;4.03;;
3733;SDS011;1882;52.256;8.874;2023-07-31T00:19:44;7.53;;;4.63;;
3733;SDS011;1882;52.256;8.874;2023-07-31T00:22:12;7.17;;;4.20;;
3733;SDS011;1882;52.256;8.874;2023-07-31T00:24:39;5.30;;;3.70;;
3733;SDS011;1882;52.256;8.874;2023-07-31T00:27:05;6.37;;;3.53;;
3733;SDS011;1882;52.256;8.874;2023-07-31T00:30:07;6.60;;;3.70;;
3733;SDS011;1882;52.256;8.874;2023-07-31T00:32:34;3.30;;;3.00;;
3733;SDS011;1882;52.256;8.874;2023-07-31T00:35:02;8.43;;;3.67;;
3733;SDS011;1882;52.256;8.874;2023-07-31T00:37:30;4.43;;;3.10;;
3733;SDS011;1882;52.256;8.874;2023-07-31T00:39:56;5.40;;;2.73;;
3733;SDS011;1882;52.256;8.874;2023-07-31T00:42:24;3.87;;;2.60;;
3733;SDS011;1882;52.256;8.874;2023-07-31T00:44:51;4.00;;;2.80;;
3733;SDS011;1882;52.256;8.874;2023-07-31T00:47:17;3.20;;;2.83;;
3733;SDS011;1882;52.256;8.874;2023-07-31T00:49:44;4.63;;;2.80;;
3733;SDS011;1882;52.256;8.874;2023-07-31T00:52:13;4.80;;;3.03;;
3733;SDS011;1882;52.256;8.874;2023-07-31T00:54:40;4.73;;;2.87;;
3733;SDS011;1882;52.256;8.874;2023-07-31T00:57:07;3.10;;;2.77;;
3733;SDS011;1882;52.256;8.874;2023-07-31T00:59:34;4.80;;;2.90;;
3733;SDS011;1882;52.256;8.874;2023-07-31T01:02:01;6.33;;;2.90;;
3733;SDS011;1882;52.256;8.874;2023-07-31T01:04:32;4.87;;;2.80;;
3733;SDS011;1882;52.256;8.874;2023-07-31T01:10:04;3.20;;;2.70;;
3733;SDS011;1882;52.256;8.874;2023-07-31T01:12:34;5.97;;;2.90;;
3733;SDS011;1882;52.256;8.874;2023-07-31T01:15:08;3.50;;;2.80;;
3733;SDS011;1882;52.256;8.874;2023-07-31T01:17:38;3.80;;;3.10;;
3733;SDS011;1882;52.256;8.874;2023-07-31T01:20:05;5.00;;;2.80;;
3733;SDS011;1882;52.256;8.874;2023-07-31T01:29:20;3.40;;;3.10;;
3733;SDS011;1882;52.256;8.874;2023-07-31T01:31:25;3.43;;;3.13;;
3733;SDS011;1882;52.256;8.874;2023-07-31T01:33:53;3.40;;;3.10;;
3733;SDS011;1882;52.256;8.874;2023-07-31T01:36:21;4.20;;;3.70;;
3733;SDS011;1882;52.256;8.874;2023-07-31T01:38:48;4.63;;;4.00;;
3733;SDS011;1882;52.256;8.874;2023-07-31T01:41:16;4.00;;;3.60;;
3733;SDS011;1882;52.256;8.874;2023-07-31T01:43:44;6.43;;;4.17;;
3733;SDS011;1882;52.256;8.874;2023-07-31T01:46:11;5.57;;;4.10;;
3733;SDS011;1882;52.256;8.874;2023-07-31T01:48:39;5.17;;;4.30;;
3733;SDS011;1882;52.256;8.874;2023-07-31T01:51:07;6.17;;;4.33;;
3733;SDS011;1882;52.256;8.874;2023-07-31T01:53:41;5.20;;;4.70;;
3733;SDS011;1882;52.256;8.874;2023-07-31T01:56:07;10.67;;;5.70;;
3733;SDS011;1882;52.256;8.874;2023-07-31T01:58:34;5.50;;;4.77;;
3733;SDS011;1882;52.256;8.874;2023-07-31T02:01:21;6.60;;;5.43;;
3733;SDS011;1882;52.256;8.874;2023-07-31T02:03:48;6.00;;;5.40;;
3733;SDS011;1882;52.256;8.874;2023-07-31T02:06:15;6.37;;;5.40;;
3733;SDS011;1882;52.256;8.874;2023-07-31T02:08:44;6.07;;;4.60;;
3733;SDS011;1882;52.256;8.874;2023-07-31T02:11:11;6.70;;;5.80;;
3733;SDS011;1882;52.256;8.874;2023-07-31T02:13:38;6.40;;;5.03;;
3733;SDS011;1882;52.256;8.874;2023-07-31T02:16:07;7.40;;;6.00;;
3733;SDS011;1882;52.256;8.874;2023-07-31T02:18:34;8.53;;;5.73;;
3733;SDS011;1882;52.256;8.874;2023-07-31T02:21:01;7.17;;;5.80;;
3733;SDS011;1882;52.256;8.874;2023-07-31T02:23:27;10.07;;;6.77;;
3733;SDS011;1882;52.256;8.874;2023-07-31T02:25:54;6.40;;;5.50;;
3733;SDS011;1882;52.256;8.874;2023-07-31T02:28:21;6.63;;;4.90;;
3733;SDS011;1882;52.256;8.874;2023-07-31T02:30:49;9.63;;;4.60;;
3733;SDS011;1882;52.256;8.874;2023-07-31T02:33:18;4.73;;;4.20;;
3733;SDS011;1882;52.256;8.874;2023-07-31T02:35:45;5.17;;;3.73;;
3733;SDS011;1882;52.256;8.874;2023-07-31T02:38:12;6.43;;;4.30;;
3733;SDS011;1882;52.256;8.874;2023-07-31T02:40:39;4.27;;;3.87;;
3733;SDS011;1882;52.256;8.874;2023-07-31T02:43:07;3.43;;;3.13;;
3733;SDS011;1882;52.256;8.874;2023-07-31T02:45:35;4.20;;;3.80;;
3733;SDS011;1882;52.256;8.874;2023-07-31T02:48:02;4.80;;;3.63;;
3733;SDS011;1882;52.256;8.874;2023-07-31T02:50:29;3.50;;;3.20;;
3733;SDS011;1882;52.256;8.874;2023-07-31T02:52:56;4.70;;;3.60;;
3733;SDS011;1882;52.256;8.874;2023-07-31T02:55:22;6.00;;;3.37;;
3733;SDS011;1882;52.256;8.874;2023-07-31T02:57:49;3.80;;;3.20;;
3733;SDS011;1882;52.256;8.874;2023-07-31T03:00:19;4.70;;;3.17;;
3733;SDS011;1882;52.256;8.874;2023-07-31T03:02:54;5.00;;;3.37;;
3733;SDS011;1882;52.256;8.874;2023-07-31T03:05:20;3.37;;;3.07;;
3733;SDS011;1882;52.256;8.874;2023-07-31T03:07:55;3.30;;;3.00;;
3733;SDS011;1882;52.256;8.874;2023-07-31T03:10:22;4.07;;;2.83;;
3733;SDS011;1882;52.256;8.874;2023-07-31T03:12:52;4.00;;;2.90;;
3733;SDS011;1882;52.256;8.874;2023-07-31T03:15:19;3.67;;;3.17;;
3733;SDS011;1882;52.256;8.874;2023-07-31T03:17:45;4.67;;;3.40;;
3733;SDS011;1882;52.256;8.874;2023-07-31T03:20:18;4.43;;;3.10;;
3733;SDS011;1882;52.256;8.874;2023-07-31T03:22:48;3.80;;;3.17;;
3733;SDS011;1882;52.256;8.874;2023-07-31T03:25:14;3.60;;;2.60;;
3733;SDS011;1882;52.256;8.874;2023-07-31T03:27:41;3.60;;;2.50;;
3733;SDS011;1882;52.256;8.874;2023-07-31T03:30:08;4.50;;;2.90;;
3733;SDS011;1882;52.256;8.874;2023-07-31T03:32:35;3.27;;;2.27;;
3733;SDS011;1882;52.256;8.874;2023-07-31T03:35:03;2.47;;;2.13;;
3733;SDS011;1882;52.256;8.874;2023-07-31T03:37:31;3.83;;;2.30;;
3733;SDS011;1882;52.256;8.874;2023-07-31T03:39:58;2.00;;;1.70;;
3733;SDS011;1882;52.256;8.874;2023-07-31T03:42:25;2.63;;;1.87;;
3733;SDS011;1882;52.256;8.874;2023-07-31T03:44:51;1.70;;;1.50;;
3733;SDS011;1882;52.256;8.874;2023-07-31T03:47:18;3.17;;;1.60;;
3733;SDS011;1882;52.256;8.874;2023-07-31T03:49:46;1.80;;;1.70;;
3733;SDS011;1882;52.256;8.874;2023-07-31T03:52:14;1.70;;;1.60;;
3733;SDS011;1882;52.256;8.874;2023-07-31T03:54:40;1.40;;;1.30;;
3733;SDS011;1882;52.256;8.874;2023-07-31T03:57:07;1.97;;;1.30;;
3733;SDS011;1882;52.256;8.874;2023-07-31T03:59:34;1.30;;;1.20;;
3733;SDS011;1882;52.256;8.874;2023-07-31T04:02:03;1.50;;;1.13;;
3733;SDS011;1882;52.256;8.874;2023-07-31T04:04:30;1.37;;;1.27;;
3733;SDS011;1882;52.256;8.874;2023-07-31T04:07:00;3.17;;;1.33;;
3733;SDS011;1882;52.256;8.874;2023-07-31T04:09:26;1.63;;;1.20;;
3733;SDS011;1882;52.256;8.874;2023-07-31T04:11:57;6.93;;;2.03;;
3733;SDS011;1882;52.256;8.874;2023-07-31T04:14:29;1.60;;;1.50;;
3733;SDS011;1882;52.256;8.874;2023-07-31T04:17:06;2.77;;;2.33;;
3733;SDS011;1882;52.256;8.874;2023-07-31T04:19:35;3.83;;;2.50;;
3733;SDS011;1882;52.256;8.874;2023-07-31T04:22:01;2.63;;;2.43;;
3733;SDS011;1882;52.256;8.874;2023-07-31T04:24:28;4.37;;;2.97;;
3733;SDS011;1882;52.256;8.874;2023-07-31T04:26:56;5.77;;;3.30;;
3733;SDS011;1882;52.256;8.874;2023-07-31T04:29:34;6.23;;;3.17;;
3733;SDS011;1882;52.256;8.874;2023-07-31T04:32:04;4.93;;;3.50;;
3733;SDS011;1882;52.256;8.874;2023-07-31T04:34:33;5.10;;;4.10;;
3733;SDS011;1882;52.256;8.874;2023-07-31T04:37:00;5.80;;;4.40;;
3733;SDS011;1882;52.256;8.874;2023-07-31T04:39:28;6.73;;;4.90;;
3733;SDS011;1882;52.256;8.874;2023-07-31T04:42:05;5.60;;;4.20;;
3733;SDS011;1882;52.256;8.874;2023-07-31T04:44:31;11.90;;;5.00;;
3733;SDS011;1882;52.256;8.874;2023-07-31T04:46:58;9.83;;;5.73;;
3733;SDS011;1882;52.256;8.874;2023-07-31T04:49:36;13.10;;;5.50;;
3733;SDS011;1882;52.256;8.874;2023-07-31T04:52:03;12.17;;;7.30;;
3733;SDS011;1882;52.256;8.874;2023-07-31T04:54:30;13.20;;;6.53;;
3733;SDS011;1882;52.256;8.874;2023-07-31T04:56:59;13.97;;;6.77;;
3733;SDS011;1882;52.256;8.874;2023-07-31T04:59:35;12.47;;;7.27;;
3733;SDS011;1882;52.256;8.874;2023-07-31T05:02:03;18.23;;;9.00;;
3733;SDS011;1882;52.256;8.874;2023-07-31T05:04:47;18.80;;;10.80;;
3733;SDS011;1882;52.256;8.874;2023-07-31T05:07:14;19.30;;;9.90;;
3733;SDS011;1882;52.256;8.874;2023-07-31T05:09:41;16.77;;;10.50;;
3733;SDS011;1882;52.256;8.874;2023-07-31T05:12:07;19.50;;;11.07;;
3733;SDS011;1882;52.256;8.874;2023-07-31T05:14:34;21.70;;;10.63;;
3733;SDS011;1882;52.256;8.874;2023-07-31T05:17:01;21.30;;;10.60;;
3733;SDS011;1882;52.256;8.874;2023-07-31T05:19:28;22.20;;;10.53;;
3733;SDS011;1882;52.256;8.874;2023-07-31T05:22:05;20.67;;;10.83;;
3733;SDS011;1882;52.256;8.874;2023-07-31T05:24:31;22.43;;;11.53;;
3733;SDS011;1882;52.256;8.874;2023-07-31T05:26:59;17.13;;;10.47;;
3733;SDS011;1882;52.256;8.874;2023-07-31T05:29:38;22.03;;;11.27;;
3733;SDS011;1882;52.256;8.874;2023-07-31T05:32:07;19.00;;;11.07;;
3733;SDS011;1882;52.256;8.874;2023-07-31T05:34:34;21.33;;;11.60;;
3733;SDS011;1882;52.256;8.874;2023-07-31T05:37:04;17.50;;;11.73;;
3733;SDS011;1882;52.256;8.874;2023-07-31T05:39:32;20.60;;;11.90;;
3733;SDS011;1882;52.256;8.874;2023-07-31T05:42:20;22.00;;;11.60;;
3733;SDS011;1882;52.256;8.874;2023-07-31T05:44:45;27.53;;;12.00;;
3733;SDS011;1882;52.256;8.874;2023-07-31T05:47:13;23.17;;;12.00;;
3733;SDS011;1882;52.256;8.874;2023-07-31T05:49:48;21.63;;;10.50;;
3733;SDS011;1882;52.256;8.874;2023-07-31T05:52:15;22.77;;;11.00;;
3733;SDS011;1882;52.256;8.874;2023-07-31T05:54:42;20.87;;;11.60;;
3733;SDS011;1882;52.256;8.874;2023-07-31T05:57:09;21.53;;;10.90;;
3733;SDS011;1882;52.256;8.874;2023-07-31T05:59:39;25.33;;;11.37;;
3733;SDS011;1882;52.256;8.874;2023-07-31T06:02:05;23.27;;;11.00;;
3733;SDS011;1882;52.256;8.874;2023-07-31T06:04:32;25.00;;;10.90;;
3733;SDS011;1882;52.256;8.874;2023-07-31T06:07:07;25.30;;;10.80;;
3733;SDS011;1882;52.256;8.874;2023-07-31T06:09:34;23.50;;;11.60;;
3733;SDS011;1882;52.256;8.874;2023-07-31T06:12:00;26.67;;;11.20;;
3733;SDS011;1882;52.256;8.874;2023-07-31T06:14:33;24.17;;;11.10;;
3733;SDS011;1882;52.256;8.874;2023-07-31T06:17:00;20.17;;;10.47;;
3733;SDS011;1882;52.256;8.874;2023-07-31T06:19:34;21.70;;;11.03;;
3733;SDS011;1882;52.256;8.874;2023-07-31T06:22:01;17.50;;;9.80;;
3733;SDS011;1882;52.256;8.874;2023-07-31T06:24:28;18.00;;;9.43;;
3733;SDS011;1882;52.256;8.874;2023-07-31T06:27:04;25.23;;;9.33;;
3733;SDS011;1882;52.256;8.874;2023-07-31T06:32:32;19.50;;;8.90;;
3733;SDS011;1882;52.256;8.874;2023-07-31T06:34:59;21.60;;;9.00;;
3733;SDS011;1882;52.256;8.874;2023-07-31T06:37:26;20.57;;;9.43;;
3733;SDS011;1882;52.256;8.874;2023-07-31T06:39:53;22.17;;;8.77;;
3733;SDS011;1882;52.256;8.874;2023-07-31T06:42:19;19.70;;;8.53;;
3733;SDS011;1882;52.256;8.874;2023-07-31T06:44:46;17.80;;;8.50;;
3733;SDS011;1882;52.256;8.874;2023-07-31T06:47:13;13.60;;;7.63;;
3733;SDS011;1882;52.256;8.874;2023-07-31T06:49:39;20.83;;;8.80;;
3733;SDS011;1882;52.256;8.874;2023-07-31T06:52:06;20.97;;;8.40;;
3733;SDS011;1882;52.256;8.874;2023-07-31T06:54:33;17.60;;;7.90;;
3733;SDS011;1882;52.256;8.874;2023-07-31T06:57:01;15.33;;;8.13;;
3733;SDS011;1882;52.256;8.874;2023-07-31T06:59:28;18.17;;;8.23;;
3733;SDS011;1882;52.256;8.874;2023-07-31T07:02:00;18.10;;;8.10;;
3733;SDS011;1882;52.256;8.874;2023-07-31T07:04:37;16.53;;;7.97;;
3733;SDS011;1882;52.256;8.874;2023-07-31T07:07:04;17.80;;;8.00;;
3733;SDS011;1882;52.256;8.874;2023-07-31T07:09:34;23.27;;;8.57;;
3733;SDS011;1882;52.256;8.874;2023-07-31T07:12:44;15.10;;;7.40;;
3733;SDS011;1882;52.256;8.874;2023-07-31T07:15:12;19.47;;;8.13;;
3733;SDS011;1882;52.256;8.874;2023-07-31T07:18:08;21.23;;;8.37;;
3733;SDS011;1882;52.256;8.874;2023-07-31T07:20:37;15.10;;;7.90;;
3733;SDS011;1882;52.256;8.874;2023-07-31T07:23:09;13.17;;;6.80;;
3733;SDS011;1882;52.256;8.874;2023-07-31T07:26:06;16.77;;;8.17;;
3733;SDS011;1882;52.256;8.874;2023-07-31T07:28:37;12.13;;;6.67;;
3733;SDS011;1882;52.256;8.874;2023-07-31T07:31:36;12.97;;;7.33;;
3733;SDS011;1882;52.256;8.874;2023-07-31T07:34:03;18.17;;;7.50;;
3733;SDS011;1882;52.256;8.874;2023-07-31T07:36:30;13.00;;;6.87;;
3733;SDS011;1882;52.256;8.874;2023-07-31T07:39:00;16.43;;;6.47;;
3733;SDS011;1882;52.256;8.874;2023-07-31T07:41:28;15.00;;;7.17;;
3733;SDS011;1882;52.256;8.874;2023-07-31T07:43:56;15.00;;;6.10;;
3733;SDS011;1882;52.256;8.874;2023-07-31T07:46:23;10.90;;;6.03;;
3733;SDS011;1882;52.256;8.874;2023-07-31T07:48:50;12.27;;;6.60;;
3733;SDS011;1882;52.256;8.874;2023-07-31T07:51:17;15.33;;;6.63;;
3733;SDS011;1882;52.256;8.874;2023-07-31T07:53:45;16.93;;;6.00;;
3733;SDS011;1882;52.256;8.874;2023-07-31T07:56:15;10.07;;;5.73;;
3733;SDS011;1882;52.256;8.874;2023-07-31T07:58:42;14.07;;;7.10;;
3733;SDS011;1882;52.256;8.874;2023-07-31T08:01:11;18.73;;;6.10;;
3733;SDS011;1882;52.256;8.874;2023-07-31T08:03:46;14.07;;;6.93;;
3733;SDS011;1882;52.256;8.874;2023-07-31T08:06:16;15.83;;;6.63;;
3733;SDS011;1882;52.256;8.874;2023-07-31T08:08:43;11.50;;;7.03;;
3733;SDS011;1882;52.256;8.874;2023-07-31T08:11:10;18.77;;;7.13;;
3733;SDS011;1882;52.256;8.874;2023-07-31T08:13:44;13.60;;;7.10;;
3733;SDS011;1882;52.256;8.874;2023-07-31T08:16:11;17.80;;;7.43;;
3733;SDS011;1882;52.256;8.874;2023-07-31T08:18:37;17.33;;;7.23;;
3733;SDS011;1882;52.256;8.874;2023-07-31T08:21:07;11.43;;;6.63;;
3733;SDS011;1882;52.256;8.874;2023-07-31T08:23:33;17.90;;;7.93;;
3733;SDS011;1882;52.256;8.874;2023-07-31T08:26:00;19.60;;;7.63;;
3733;SDS011;1882;52.256;8.874;2023-07-31T08:28:27;14.10;;;7.87;;
3733;SDS011;1882;52.256;8.874;2023-07-31T08:30:54;15.83;;;7.80;;
3733;SDS011;1882;52.256;8.874;2023-07-31T08:33:24;14.57;;;8.03;;
3733;SDS011;1882;52.256;8.874;2023-07-31T08:35:50;15.10;;;7.83;;
3733;SDS011;1882;52.256;8.874;2023-07-31T08:38:17;12.33;;;7.50;;
3733;SDS011;1882;52.256;8.874;2023-07-31T08:40:44;11.17;;;7.43;;
3733;SDS011;1882;52.256;8.874;2023-07-31T08:43:11;11.40;;;6.83;;
3733;SDS011;1882;52.256;8.874;2023-07-31T08:45:38;11.30;;;6.80;;
3733;SDS011;1882;52.256;8.874;2023-07-31T08:48:08;19.20;;;6.93;;
3733;SDS011;1882;52.256;8.874;2023-07-31T08:50:36;11.40;;;6.83;;
3733;SDS011;1882;52.256;8.874;2023-07-31T08:53:16;16.53;;;6.87;;
3733;SDS011;1882;52.256;8.874;2023-07-31T08:55:49;8.60;;;5.80;;
3733;SDS011;1882;52.256;8.874;2023-07-31T08:58:17;11.07;;;6.43;;
3733;SDS011;1882;52.256;8.874;2023-07-31T09:00:46;7.97;;;5.80;;
3733;SDS011;1882;52.256;8.874;2023-07-31T09:03:14;10.47;;;5.33;;
3733;SDS011;1882;52.256;8.874;2023-07-31T09:05:46;10.53;;;5.00;;
3733;SDS011;1882;52.256;8.874;2023-07-31T09:08:47;9.93;;;4.93;;
3733;SDS011;1882;52.256;8.874;2023-07-31T09:14:07;9.10;;;5.03;;
3733;SDS011;1882;52.256;8.874;2023-07-31T09:16:35;6.53;;;4.37;;
3733;SDS011;1882;52.256;8.874;2023-07-31T09:19:03;7.00;;;4.10;;
3733;SDS011;1882;52.256;8.874;2023-07-31T09:21:31;6.60;;;4.47;;
3733;SDS011;1882;52.256;8.874;2023-07-31T09:24:01;7.07;;;4.50;;
3733;SDS011;1882;52.256;8.874;2023-07-31T09:26:32;4.97;;;4.47;;
3733;SDS011;1882;52.256;8.874;2023-07-31T09:29:00;7.27;;;5.00;;
3733;SDS011;1882;52.256;8.874;2023-07-31T09:31:31;9.30;;;4.63;;
3733;SDS011;1882;52.256;8.874;2023-07-31T09:34:08;7.70;;;4.50;;
3733;SDS011;1882;52.256;8.874;2023-07-31T09:36:39;10.53;;;4.80;;
3733;SDS011;1882;52.256;8.874;2023-07-31T09:39:10;5.33;;;4.27;;
3733;SDS011;1882;52.256;8.874;2023-07-31T09:41:53;5.63;;;4.10;;
3733;SDS011;1882;52.256;8.874;2023-07-31T09:44:21;8.63;;;4.20;;
3733;SDS011;1882;52.256;8.874;2023-07-31T09:47:23;8.33;;;4.30;;
3733;SDS011;1882;52.256;8.874;2023-07-31T09:50:00;4.73;;;3.40;;
3733;SDS011;1882;52.256;8.874;2023-07-31T09:52:27;4.30;;;3.57;;
3733;SDS011;1882;52.256;8.874;2023-07-31T09:54:54;3.90;;;3.50;;
3733;SDS011;1882;52.256;8.874;2023-07-31T09:57:21;7.37;;;3.77;;
3733;SDS011;1882;52.256;8.874;2023-07-31T09:59:49;4.57;;;3.60;;
3733;SDS011;1882;52.256;8.874;2023-07-31T10:02:20;4.87;;;3.70;;
3733;SDS011;1882;52.256;8.874;2023-07-31T10:04:51;4.90;;;3.60;;
3733;SDS011;1882;52.256;8.874;2023-07-31T10:07:21;5.43;;;3.70;;
3733;SDS011;1882;52.256;8.874;2023-07-31T10:09:53;5.13;;;3.97;;
3733;SDS011;1882;52.256;8.874;2023-07-31T10:12:21;7.43;;;3.80;;
3733;SDS011;1882;52.256;8.874;2023-07-31T10:14:49;5.40;;;3.83;;
3733;SDS011;1882;52.256;8.874;2023-07-31T10:17:21;9.57;;;3.60;;
3733;SDS011;1882;52.256;8.874;2023-07-31T10:19:49;5.83;;;3.53;;
3733;SDS011;1882;52.256;8.874;2023-07-31T10:22:16;5.27;;;3.60;;
3733;SDS011;1882;52.256;8.874;2023-07-31T10:24:45;5.07;;;3.93;;
3733;SDS011;1882;52.256;8.874;2023-07-31T10:27:12;4.93;;;3.57;;
3733;SDS011;1882;52.256;8.874;2023-07-31T10:29:51;4.80;;;3.83;;
3733;SDS011;1882;52.256;8.874;2023-07-31T10:32:18;7.03;;;3.63;;
3733;SDS011;1882;52.256;8.874;2023-07-31T10:34:49;6.63;;;3.73;;
3733;SDS011;1882;52.256;8.874;2023-07-31T10:37:28;4.80;;;3.50;;
3733;SDS011;1882;52.256;8.874;2023-07-31T10:42:58;4.60;;;3.60;;
3733;SDS011;1882;52.256;8.874;2023-07-31T10:48:28;4.87;;;3.53;;
3733;SDS011;1882;52.256;8.874;2023-07-31T10:50:55;7.37;;;3.30;;
3733;SDS011;1882;52.256;8.874;2023-07-31T10:55:52;3.43;;;3.10;;
3733;SDS011;1882;52.256;8.874;2023-07-31T10:58:23;5.33;;;3.50;;
3733;SDS011;1882;52.256;8.874;2023-07-31T11:00:50;4.50;;;3.00;;
3733;SDS011;1882;52.256;8.874;2023-07-31T11:03:26;3.90;;;2.50;;
3733;SDS011;1882;52.256;8.874;2023-07-31T11:06:18;5.13;;;3.00;;
3733;SDS011;1882;52.256;8.874;2023-07-31T11:08:55;3.53;;;2.50;;
3733;SDS011;1882;52.256;8.874;2023-07-31T11:11:22;4.03;;;2.70;;
3733;SDS011;1882;52.256;8.874;2023-07-31T11:13:50;4.60;;;2.77;;
3733;SDS011;1882;52.256;8.874;2023-07-31T11:16:22;2.90;;;2.60;;
3733;SDS011;1882;52.256;8.874;2023-07-31T11:18:51;2.30;;;2.10;;
3733;SDS011;1882;52.256;8.874;2023-07-31T11:21:23;4.13;;;2.37;;
3733;SDS011;1882;52.256;8.874;2023-07-31T11:23:51;3.00;;;2.40;;
3733;SDS011;1882;52.256;8.874;2023-07-31T11:26:20;2.23;;;2.07;;
3733;SDS011;1882;52.256;8.874;2023-07-31T11:28:47;2.00;;;1.90;;
3733;SDS011;1882;52.256;8.874;2023-07-31T11:31:15;2.57;;;2.37;;
3733;SDS011;1882;52.256;8.874;2023-07-31T11:33:42;2.33;;;1.93;;
3733;SDS011;1882;52.256;8.874;2023-07-31T11:36:17;6.23;;;2.03;;
3733;SDS011;1882;52.256;8.874;2023-07-31T11:38:45;2.27;;;2.07;;
3733;SDS011;1882;52.256;8.874;2023-07-31T11:41:13;2.97;;;2.10;;
3733;SDS011;1882;52.256;8.874;2023-07-31T11:43:47;5.67;;;2.10;;
3733;SDS011;1882;52.256;8.874;2023-07-31T11:46:14;3.90;;;2.20;;
3733;SDS011;1882;52.256;8.874;2023-07-31T11:48:47;3.10;;;2.10;;
3733;SDS011;1882;52.256;8.874;2023-07-31T11:51:20;2.20;;;2.10;;
3733;SDS011;1882;52.256;8.874;2023-07-31T11:54:03;7.10;;;2.10;;
3733;SDS011;1882;52.256;8.874;2023-07-31T11:56:30;2.10;;;1.80;;
3733;SDS011;1882;52.256;8.874;2023-07-31T11:58:57;2.40;;;2.20;;
3733;SDS011;1882;52.256;8.874;2023-07-31T12:01:27;1.90;;;1.80;;
3733;SDS011;1882;52.256;8.874;2023-07-31T12:03:54;2.30;;;2.10;;
3733;SDS011;1882;52.256;8.874;2023-07-31T12:06:21;2.80;;;2.20;;
3733;SDS011;1882;52.256;8.874;2023-07-31T12:08:48;3.10;;;2.50;;
3733;SDS011;1882;52.256;8.874;2023-07-31T12:11:16;2.30;;;2.10;;
3733;SDS011;1882;52.256;8.874;2023-07-31T12:13:44;7.20;;;2.27;;
3733;SDS011;1882;52.256;8.874;2023-07-31T12:16:11;2.50;;;2.30;;
3733;SDS011;1882;52.256;8.874;2023-07-31T12:18:38;3.47;;;2.40;;
3733;SDS011;1882;52.256;8.874;2023-07-31T12:21:06;2.20;;;2.10;;
3733;SDS011;1882;52.256;8.874;2023-07-31T12:23:35;2.87;;;2.10;;
3733;SDS011;1882;52.256;8.874;2023-07-31T12:26:04;2.90;;;2.20;;
3733;SDS011;1882;52.256;8.874;2023-07-31T12:28:54;7.30;;;2.10;;
3733;SDS011;1882;52.256;8.874;2023-07-31T12:31:21;2.43;;;2.23;;
3733;SDS011;1882;52.256;8.874;2023-07-31T12:33:49;2.20;;;2.10;;
3733;SDS011;1882;52.256;8.874;2023-07-31T12:36:21;2.67;;;2.47;;
3733;SDS011;1882;52.256;8.874;2023-07-31T12:38:51;2.27;;;2.07;;
3733;SDS011;1882;52.256;8.874;2023-07-31T12:41:18;3.87;;;2.20;;
3733;SDS011;1882;52.256;8.874;2023-07-31T12:48:24;2.00;;;1.80;;
3733;SDS011;1882;52.256;8.874;2023-07-31T12:50:51;1.67;;;1.57;;
3733;SDS011;1882;52.256;8.874;2023-07-31T12:53:27;2.30;;;1.70;;
3733;SDS011;1882;52.256;8.874;2023-07-31T13:00:06;1.77;;;1.67;;
3733;SDS011;1882;52.256;8.874;2023-07-31T13:02:49;1.97;;;1.73;;
3733;SDS011;1882;52.256;8.874;2023-07-31T13:10:04;2.43;;;1.70;;
3733;SDS011;1882;52.256;8.874;2023-07-31T13:12:33;1.80;;;1.70;;
3733;SDS011;1882;52.256;8.874;2023-07-31T13:15:04;2.00;;;1.90;;
3733;SDS011;1882;52.256;8.874;2023-07-31T13:17:32;1.70;;;1.60;;
3733;SDS011;1882;52.256;8.874;2023-07-31T13:20:07;3.23;;;1.80;;
3733;SDS011;1882;52.256;8.874;2023-07-31T13:22:35;2.80;;;2.20;;
3733;SDS011;1882;52.256;8.874;2023-07-31T13:25:02;2.50;;;2.30;;
3733;SDS011;1882;52.256;8.874;2023-07-31T13:27:29;4.67;;;2.23;;
3733;SDS011;1882;52.256;8.874;2023-07-31T13:30:05;5.33;;;2.80;;
3733;SDS011;1882;52.256;8.874;2023-07-31T13:36:16;3.20;;;2.90;;
3733;SDS011;1882;52.256;8.874;2023-07-31T13:39:11;4.00;;;3.63;;
3733;SDS011;1882;52.256;8.874;2023-07-31T13:41:43;4.63;;;4.00;;
3733;SDS011;1882;52.256;8.874;2023-07-31T13:44:12;5.13;;;4.60;;
3733;SDS011;1882;52.256;8.874;2023-07-31T13:46:40;6.43;;;5.20;;
3733;SDS011;1882;52.256;8.874;2023-07-31T13:49:09;7.07;;;4.93;;
3733;SDS011;1882;52.256;8.874;2023-07-31T13:51:36;8.10;;;5.30;;
3733;SDS011;1882;52.256;8.874;2023-07-31T13:54:13;7.20;;;5.77;;
3733;SDS011;1882;52.256;8.874;2023-07-31T13:56:42;6.40;;;5.77;;
3733;SDS011;1882;52.256;8.874;2023-07-31T13:59:10;7.70;;;6.67;;
3733;SDS011;1882;52.256;8.874;2023-07-31T14:01:47;11.20;;;7.30;;
3733;SDS011;1882;52.256;8.874;2023-07-31T14:04:14;9.50;;;6.80;;
3733;SDS011;1882;52.256;8.874;2023-07-31T14:06:44;8.37;;;6.53;;
3733;SDS011;1882;52.256;8.874;2023-07-31T14:09:19;8.10;;;6.87;;
3733;SDS011;1882;52.256;8.874;2023-07-31T14:11:49;9.30;;;7.40;;
3733;SDS011;1882;52.256;8.874;2023-07-31T14:14:18;10.30;;;6.60;;
3733;SDS011;1882;52.256;8.874;2023-07-31T14:16:47;8.10;;;7.20;;
3733;SDS011;1882;52.256;8.874;2023-07-31T14:23:15;8.93;;;6.27;;
3733;SDS011;1882;52.256;8.874;2023-07-31T14:33:01;7.60;;;5.23;;
3733;SDS011;1882;52.256;8.874;2023-07-31T14:35:31;9.47;;;5.70;;
3733;SDS011;1882;52.256;8.874;2023-07-31T14:38:16;5.80;;;5.30;;
3733;SDS011;1882;52.256;8.874;2023-07-31T14:40:47;13.80;;;5.37;;
3733;SDS011;1882;52.256;8.874;2023-07-31T14:49:40;8.70;;;5.60;;
3733;SDS011;1882;52.256;8.874;2023-07-31T14:52:10;5.90;;;5.30;;
3733;SDS011;1882;52.256;8.874;2023-07-31T14:54:49;8.80;;;5.63;;
3733;SDS011;1882;52.256;8.874;2023-07-31T15:00:35;7.53;;;5.93;;
3733;SDS011;1882;52.256;8.874;2023-07-31T15:09:24;7.27;;;5.43;;
3733;SDS011;1882;52.256;8.874;2023-07-31T15:12:11;8.37;;;5.83;;
3733;SDS011;1882;52.256;8.874;2023-07-31T15:14:38;6.80;;;6.10;;
3733;SDS011;1882;52.256;8.874;2023-07-31T15:17:11;6.50;;;5.90;;
3733;SDS011;1882;52.256;8.874;2023-07-31T15:19:51;6.70;;;5.77;;
3733;SDS011;1882;52.256;8.874;2023-07-31T15:22:27;7.93;;;5.90;;
3733;SDS011;1882;52.256;8.874;2023-07-31T15:24:59;6.90;;;5.93;;
3733;SDS011;1882;52.256;8.874;2023-07-31T15:27:41;7.60;;;6.03;;
3733;SDS011;1882;52.256;8.874;2023-07-31T15:31:20;7.10;;;6.40;;
3733;SDS011;1882;52.256;8.874;2023-07-31T15:33:50;7.27;;;6.00;;
3733;SDS011;1882;52.256;8.874;2023-07-31T15:36:17;7.80;;;6.03;;
3733;SDS011;1882;52.256;8.874;2023-07-31T15:38:45;6.63;;;5.90;;
3733;SDS011;1882;52.256;8.874;2023-07-31T15:41:22;10.93;;;6.27;;
3733;SDS011;1882;52.256;8.874;2023-07-31T16:21:44;9.40;;;5.07;;
3733;SDS011;1882;52.256;8.874;2023-07-31T16:24:12;8.57;;;5.30;;
3733;SDS011;1882;52.256;8.874;2023-07-31T16:26:42;8.70;;;5.60;;
3733;SDS011;1882;52.256;8.874;2023-07-31T16:29:09;6.10;;;5.50;;
3733;SDS011;1882;52.256;8.874;2023-07-31T16:31:36;6.63;;;5.80;;
3733;SDS011;1882;52.256;8.874;2023-07-31T16:34:22;8.23;;;5.80;;
3733;SDS011;1882;52.256;8.874;2023-07-31T16:36:54;7.60;;;5.17;;
3733;SDS011;1882;52.256;8.874;2023-07-31T16:39:24;6.23;;;5.60;;
3733;SDS011;1882;52.256;8.874;2023-07-31T17:03:06;9.17;;;6.03;;
3733;SDS011;1882;52.256;8.874;2023-07-31T17:15:09;6.37;;;5.63;;
3733;SDS011;1882;52.256;8.874;2023-07-31T17:17:39;8.30;;;5.30;;
3733;SDS011;1882;52.256;8.874;2023-07-31T17:20:07;8.00;;;5.33;;
3733;SDS011;1882;52.256;8.874;2023-07-31T17:22:34;7.67;;;5.00;;
3733;SDS011;1882;52.256;8.874;2023-07-31T17:25:16;5.70;;;4.40;;
3733;SDS011;1882;52.256;8.874;2023-07-31T17:27:56;5.93;;;4.13;;
3733;SDS011;1882;52.256;8.874;2023-07-31T17:30:31;7.73;;;4.70;;
3733;SDS011;1882;52.256;8.874;2023-07-31T17:33:02;6.33;;;4.33;;
3733;SDS011;1882;52.256;8.874;2023-07-31T17:35:29;5.60;;;4.33;;
3733;SDS011;1882;52.256;8.874;2023-07-31T17:38:01;9.30;;;4.33;;
3733;SDS011;1882;52.256;8.874;2023-07-31T17:40:28;5.63;;;4.20;;
3733;SDS011;1882;52.256;8.874;2023-07-31T17:43:03;4.97;;;4.10;;
3733;SDS011;1882;52.256;8.874;2023-07-31T17:45:37;7.73;;;4.50;;